createdAt,value
2022-09-12T00:01:38.245Z,69.89
2022-09-12T00:04:07.122Z,69.74
2022-09-12T00:06:38.057Z,70.00
2022-09-12T00:09:09.196Z,69.71
2022-09-12T00:11:38.271Z,69.67
2022-09-12T00:14:09.918Z,69.67
2022-09-12T00:16:40.075Z,69.23
2022-09-12T00:19:10.130Z,69.13
2022-09-12T00:21:41.427Z,68.96
2022-09-12T00:24:10.565Z,68.91
2022-09-12T00:26:39.767Z,69.06
2022-09-12T00:29:09.693Z,68.85
2022-09-12T00:31:38.705Z,68.87
2022-09-12T00:34:07.105Z,68.77
2022-09-12T00:36:35.651Z,68.82
2022-09-12T00:39:05.306Z,68.92
2022-09-12T00:41:36.641Z,68.87
2022-09-12T00:44:51.008Z,68.91
2022-09-12T00:47:24.327Z,69.12
2022-09-12T00:49:59.519Z,68.97
2022-09-12T00:52:32.756Z,69.02
2022-09-12T00:55:07.038Z,68.81
2022-09-12T00:57:38.831Z,68.89
2022-09-12T01:00:14.881Z,68.85
2022-09-12T01:02:45.514Z,68.96
2022-09-12T01:05:15.273Z,68.90
2022-09-12T01:07:44.993Z,68.80
2022-09-12T01:10:13.323Z,68.70
2022-09-12T01:12:44.367Z,68.81
2022-09-12T01:15:14.652Z,68.58
2022-09-12T01:18:00.099Z,68.46
2022-09-12T01:20:41.379Z,68.70
2022-09-12T01:23:47.530Z,68.96
2022-09-12T01:26:32.905Z,68.83
2022-09-12T01:29:21.187Z,68.99
2022-09-12T01:31:58.377Z,69.20
2022-09-12T01:34:32.753Z,69.33
2022-09-12T01:37:12.444Z,69.61
2022-09-12T01:39:51.584Z,69.27
2022-09-12T01:42:27.998Z,69.39
2022-09-12T01:45:05.172Z,69.08
2022-09-12T01:47:41.358Z,69.06
2022-09-12T01:50:15.276Z,69.01
2022-09-12T01:52:50.150Z,69.11
2022-09-12T01:55:22.866Z,68.84
2022-09-12T01:57:56.453Z,69.22
2022-09-12T02:00:25.234Z,69.33
2022-09-12T02:03:03.526Z,69.58
2022-09-12T02:05:36.014Z,69.67
2022-09-12T02:08:09.143Z,69.44
2022-09-12T02:10:44.874Z,69.50
2022-09-12T02:13:18.874Z,69.58
2022-09-12T02:15:51.596Z,69.39
2022-09-12T02:18:22.899Z,69.25
2022-09-12T02:20:53.083Z,69.79
2022-09-12T02:23:24.669Z,69.52
2022-09-12T02:25:58.009Z,69.87
2022-09-12T02:28:30.606Z,69.93
2022-09-12T02:31:06.831Z,70.09
2022-09-12T02:33:44.995Z,70.17
2022-09-12T02:36:23.898Z,70.38
2022-09-12T02:38:53.135Z,70.67
2022-09-12T02:41:22.512Z,70.85
2022-09-12T02:43:53.906Z,70.86
2022-09-12T02:46:26.849Z,71.30
2022-09-12T02:48:58.463Z,71.57
2022-09-12T02:51:27.907Z,71.83
2022-09-12T02:53:57.011Z,71.58
2022-09-12T02:56:29.122Z,71.92
2022-09-12T02:59:03.614Z,71.81
2022-09-12T03:01:50.621Z,71.90
2022-09-12T03:04:38.666Z,72.17
2022-09-12T03:07:15.038Z,72.08
2022-09-12T03:09:49.543Z,72.38
2022-09-12T03:12:29.503Z,72.36
2022-09-12T03:15:13.541Z,71.90
2022-09-12T03:17:54.181Z,72.01
2022-09-12T03:20:36.986Z,72.11
2022-09-12T03:23:12.219Z,71.95
2022-09-12T03:25:46.787Z,71.93
2022-09-12T03:28:17.561Z,72.12
2022-09-12T03:30:48.658Z,72.00
2022-09-12T03:33:19.526Z,71.71
2022-09-12T03:35:50.589Z,71.65
2022-09-12T03:38:19.725Z,71.60
2022-09-12T03:40:52.730Z,71.57
2022-09-12T03:43:23.670Z,71.59
2022-09-12T03:45:53.664Z,71.59
2022-09-12T03:48:22.371Z,71.38
2022-09-12T03:50:52.446Z,71.75
2022-09-12T03:53:20.737Z,71.54
2022-09-12T03:55:49.788Z,71.48
2022-09-12T03:58:18.499Z,71.48
2022-09-12T04:00:47.037Z,71.64
2022-09-12T04:03:16.079Z,71.33
2022-09-12T04:05:44.361Z,71.28
2022-09-12T04:08:14.463Z,71.34
2022-09-12T04:10:42.834Z,71.20
2022-09-12T04:13:11.163Z,71.25
2022-09-12T04:15:39.810Z,71.21
2022-09-12T04:18:08.866Z,71.27
2022-09-12T04:20:37.531Z,70.86
2022-09-12T04:23:06.600Z,70.91
2022-09-12T04:25:36.630Z,71.02
2022-09-12T04:28:05.417Z,71.13
2022-09-12T04:30:35.588Z,71.00
2022-09-12T04:33:07.978Z,71.26
2022-09-12T04:35:37.734Z,70.97
2022-09-12T04:38:06.395Z,70.96
2022-09-12T04:40:36.297Z,71.07
2022-09-12T04:43:10.126Z,70.83
2022-09-12T04:45:40.831Z,70.84
2022-09-12T04:48:09.995Z,71.03
2022-09-12T04:50:38.834Z,70.79
2022-09-12T04:53:07.192Z,70.92
2022-09-12T04:55:37.731Z,71.04
2022-09-12T04:58:06.517Z,70.78
2022-09-12T05:00:35.526Z,70.82
2022-09-12T05:03:04.230Z,70.68
2022-09-12T05:05:32.995Z,70.87
2022-09-12T05:08:01.278Z,71.12
2022-09-12T05:10:30.434Z,71.00
2022-09-12T05:13:00.110Z,70.81
2022-09-12T05:15:30.432Z,70.86
2022-09-12T05:17:59.177Z,70.56
2022-09-12T05:20:27.871Z,70.39
2022-09-12T05:22:56.323Z,70.73
2022-09-12T05:25:24.630Z,70.26
2022-09-12T05:27:54.090Z,70.20
2022-09-12T05:30:23.759Z,70.23
2022-09-12T05:32:52.963Z,70.04
2022-09-12T05:35:21.243Z,70.16
2022-09-12T05:37:49.530Z,70.21
2022-09-12T05:40:19.355Z,70.24
2022-09-12T05:42:47.991Z,70.02
2022-09-12T05:45:17.155Z,70.08
2022-09-12T05:47:49.253Z,70.17
2022-09-12T05:50:17.782Z,70.01
2022-09-12T05:52:46.490Z,70.11
2022-09-12T05:55:14.778Z,70.13
2022-09-12T05:57:46.202Z,69.92
2022-09-12T06:00:15.898Z,69.68
2022-09-12T06:02:46.068Z,69.64
2022-09-12T06:05:15.967Z,69.45
2022-09-12T06:07:46.741Z,69.77
2022-09-12T06:10:16.373Z,69.64
2022-09-12T06:12:44.730Z,69.68
2022-09-12T06:15:14.393Z,69.76
2022-09-12T06:17:42.672Z,69.55
2022-09-12T06:20:11.177Z,69.95
2022-09-12T06:22:41.503Z,70.09
2022-09-12T06:25:09.977Z,70.22
2022-09-12T06:27:38.303Z,70.36
2022-09-12T06:30:08.323Z,71.01
2022-09-12T06:32:36.663Z,70.43
2022-09-12T06:35:05.995Z,70.35
2022-09-12T06:37:34.847Z,70.63
2022-09-12T06:40:04.940Z,70.79
2022-09-12T06:42:34.440Z,70.95
2022-09-12T06:45:02.744Z,71.16
2022-09-12T06:47:31.925Z,71.17
2022-09-12T06:50:00.184Z,71.42
2022-09-12T06:52:29.503Z,71.45
2022-09-12T06:54:57.827Z,71.36
2022-09-12T06:57:30.367Z,71.25
2022-09-12T06:59:59.800Z,71.15
2022-09-12T07:02:28.119Z,71.39
2022-09-12T07:04:57.005Z,71.29
2022-09-12T07:07:25.872Z,71.33
2022-09-12T07:09:54.151Z,71.49
2022-09-12T07:12:22.487Z,71.73
2022-09-12T07:14:52.088Z,71.75
2022-09-12T07:17:20.712Z,71.55
2022-09-12T07:19:49.365Z,72.04
2022-09-12T07:22:17.637Z,72.40
2022-09-12T07:24:47.902Z,72.50
2022-09-12T07:27:16.363Z,72.66
2022-09-12T07:29:47.061Z,72.63
2022-09-12T07:32:16.665Z,72.67
2022-09-12T07:34:46.510Z,72.86
2022-09-12T07:37:14.786Z,72.83
2022-09-12T07:39:43.794Z,72.97
2022-09-12T07:42:12.735Z,72.96
2022-09-12T07:44:41.302Z,72.84
2022-09-12T07:47:09.630Z,72.97
2022-09-12T07:49:39.236Z,72.82
2022-09-12T07:52:08.810Z,72.65
2022-09-12T07:54:37.402Z,72.55
2022-09-12T07:57:06.096Z,72.31
2022-09-12T07:59:52.016Z,72.04
2022-09-12T08:02:22.503Z,71.46
2022-09-12T08:04:53.022Z,71.44
2022-09-12T08:07:21.381Z,71.28
2022-09-12T08:09:49.846Z,70.96
2022-09-12T08:12:20.231Z,70.61
2022-09-12T08:14:49.681Z,70.47
2022-09-12T08:17:18.503Z,70.28
2022-09-12T08:19:47.549Z,69.31
2022-09-12T08:22:19.028Z,69.27
2022-09-12T08:24:47.349Z,68.64
2022-09-12T08:27:17.034Z,68.07
2022-09-12T08:29:45.446Z,67.74
2022-09-12T08:32:14.447Z,67.46
2022-09-12T08:34:42.725Z,67.24
2022-09-12T08:37:11.394Z,66.98
2022-09-12T08:39:42.237Z,66.78
2022-09-12T08:42:13.797Z,66.41
2022-09-12T08:45:02.774Z,65.90
2022-09-12T08:47:35.168Z,65.40
2022-09-12T08:50:11.859Z,65.34
2022-09-12T08:52:45.258Z,64.56
2022-09-12T08:55:26.531Z,64.63
2022-09-12T08:57:55.994Z,64.00
2022-09-12T09:00:24.465Z,63.41
2022-09-12T09:03:34.379Z,62.94
2022-09-12T09:06:09.465Z,62.59
2022-09-12T09:08:51.363Z,62.24
2022-09-12T09:11:36.007Z,61.62
2022-09-12T09:14:37.639Z,61.49
2022-09-12T09:17:11.941Z,60.55
2022-09-12T09:19:50.853Z,60.25
2022-09-12T09:22:27.869Z,59.70
2022-09-12T09:25:03.537Z,59.11
2022-09-12T09:27:40.793Z,58.45
2022-09-12T09:30:15.823Z,58.08
2022-09-12T09:32:47.931Z,57.09
2022-09-12T09:35:20.420Z,56.28
2022-09-12T09:38:01.622Z,55.63
2022-09-12T09:40:44.603Z,54.96
2022-09-12T09:43:22.850Z,54.31
2022-09-12T09:45:53.303Z,54.39
2022-09-12T09:48:25.003Z,53.43
2022-09-12T09:50:54.029Z,53.03
2022-09-12T09:53:36.562Z,52.29
2022-09-12T09:56:12.139Z,51.98
2022-09-12T09:58:42.341Z,51.77
2022-09-12T10:01:16.989Z,51.01
2022-09-12T10:03:51.847Z,50.42
2022-09-12T10:06:32.921Z,49.97
2022-09-12T10:09:23.250Z,49.50
2022-09-12T10:11:56.032Z,49.31
2022-09-12T10:14:36.736Z,48.84
2022-09-12T10:17:25.151Z,48.01
2022-09-12T10:20:10.890Z,47.75
2022-09-12T10:22:48.495Z,47.09
2022-09-12T10:25:21.086Z,46.94
2022-09-12T10:27:55.154Z,46.31
2022-09-12T10:30:28.758Z,45.68
2022-09-12T10:33:06.441Z,45.55
2022-09-12T10:35:46.654Z,45.11
2022-09-12T10:38:22.805Z,45.05
2022-09-12T10:40:59.315Z,44.30
2022-09-12T10:43:30.974Z,43.70
2022-09-12T10:46:21.948Z,43.22
2022-09-12T10:48:51.930Z,42.94
2022-09-12T10:51:28.782Z,43.06
2022-09-12T10:54:00.707Z,42.44
2022-09-12T10:56:32.578Z,42.02
2022-09-12T10:59:19.812Z,41.37
2022-09-12T11:01:54.002Z,41.66
2022-09-12T11:04:32.799Z,40.83
2022-09-12T11:07:22.049Z,40.67
2022-09-12T11:09:57.285Z,40.98
2022-09-12T11:12:37.546Z,41.11
2022-09-12T11:15:27.015Z,41.04
2022-09-12T11:18:02.139Z,40.88
2022-09-12T11:20:44.454Z,40.14
2022-09-12T11:23:48.957Z,39.11
2022-09-12T11:26:32.681Z,39.28
2022-09-12T11:29:14.226Z,38.83
2022-09-12T11:32:00.604Z,38.67
2022-09-12T11:34:42.864Z,38.42
2022-09-12T11:37:34.107Z,38.08
2022-09-12T11:40:19.356Z,38.42
2022-09-12T11:42:52.853Z,37.73
2022-09-12T11:45:28.958Z,37.37
2022-09-12T11:48:05.272Z,36.27
2022-09-12T11:50:35.426Z,36.24
2022-09-12T11:53:12.401Z,35.86
2022-09-12T11:55:51.725Z,35.94
2022-09-12T11:58:23.573Z,35.81
2022-09-12T12:00:57.093Z,35.25
2022-09-12T12:03:32.799Z,35.12
2022-09-12T12:06:07.988Z,35.07
2022-09-12T12:08:40.929Z,34.25
2022-09-12T12:11:11.054Z,33.83
2022-09-12T12:13:46.537Z,33.61
2022-09-12T12:16:22.373Z,33.52
2022-09-12T12:18:56.158Z,33.35
2022-09-12T12:21:41.127Z,33.04
2022-09-12T12:24:20.933Z,33.27
2022-09-12T12:26:59.015Z,32.62
2022-09-12T12:29:43.420Z,32.85
2022-09-12T12:32:36.842Z,33.08
2022-09-12T12:35:40.029Z,32.77
2022-09-12T12:38:30.985Z,32.51
2022-09-12T12:41:36.184Z,33.34
2022-09-12T12:44:51.421Z,33.50
2022-09-12T12:47:23.141Z,34.20
2022-09-12T12:49:54.373Z,34.39
2022-09-12T12:52:23.238Z,34.70
2022-09-12T12:54:56.358Z,34.62
2022-09-12T12:57:33.256Z,34.76
2022-09-12T13:00:08.793Z,34.45
2022-09-12T13:02:41.356Z,34.32
2022-09-12T13:05:20.406Z,35.32
2022-09-12T13:07:56.163Z,35.68
2022-09-12T13:10:28.824Z,36.21
2022-09-12T13:13:03.759Z,36.56
2022-09-12T13:15:54.138Z,37.27
2022-09-12T13:18:28.665Z,37.63
2022-09-12T13:21:08.720Z,37.81
2022-09-12T13:23:37.994Z,38.17
2022-09-12T13:26:12.185Z,38.21
2022-09-12T13:28:40.876Z,38.03
2022-09-12T13:31:19.447Z,38.38
2022-09-12T13:33:51.752Z,38.51
2022-09-12T13:36:44.322Z,38.42
2022-09-12T13:39:18.720Z,38.05
2022-09-12T13:42:04.174Z,38.72
2022-09-12T13:44:40.891Z,38.82
2022-09-12T13:47:16.141Z,38.31
2022-09-12T13:49:46.665Z,38.73
2022-09-12T13:52:20.090Z,38.50
2022-09-12T13:54:51.679Z,38.49
2022-09-12T13:57:36.183Z,38.23
2022-09-12T14:00:08.767Z,38.13
2022-09-12T14:02:41.480Z,38.09
2022-09-12T14:05:14.985Z,38.06
2022-09-12T14:07:55.065Z,38.01
2022-09-12T14:10:32.201Z,37.77
2022-09-12T14:13:02.345Z,37.61
2022-09-12T14:15:33.719Z,36.97
2022-09-12T14:18:06.738Z,36.62
2022-09-12T14:20:39.663Z,36.74
2022-09-12T14:23:18.950Z,36.74
2022-09-12T14:25:49.097Z,37.23
2022-09-12T14:28:23.596Z,37.12
2022-09-12T14:31:00.782Z,36.92
2022-09-12T14:33:34.340Z,36.89
2022-09-12T14:36:13.141Z,36.83
2022-09-12T14:38:44.263Z,36.75
2022-09-12T14:41:15.350Z,36.25
2022-09-12T14:43:47.612Z,36.07
2022-09-12T14:46:20.807Z,36.46
2022-09-12T14:48:54.834Z,37.16
2022-09-12T14:51:27.854Z,37.52
2022-09-12T14:53:56.218Z,37.78
2022-09-12T14:56:40.715Z,38.44
2022-09-12T14:59:31.050Z,38.94
2022-09-12T15:02:26.862Z,39.11
2022-09-12T15:05:17.958Z,39.23
2022-09-12T15:07:55.086Z,39.23
2022-09-12T15:10:27.588Z,39.28
2022-09-12T15:13:15.552Z,39.29
2022-09-12T15:15:47.069Z,39.54
2022-09-12T15:18:16.258Z,39.60
2022-09-12T15:20:48.546Z,40.08
2022-09-12T15:23:21.513Z,40.25
2022-09-12T15:25:50.590Z,40.02
2022-09-12T15:28:21.542Z,40.22
2022-09-12T15:30:52.873Z,40.08
2022-09-12T15:33:24.110Z,39.96
2022-09-12T15:35:54.851Z,39.41
2022-09-12T15:38:26.598Z,39.89
2022-09-12T15:40:55.809Z,39.82
2022-09-12T15:43:26.565Z,39.90
2022-09-12T15:45:54.968Z,40.18
2022-09-12T15:48:24.793Z,40.22
2022-09-12T15:50:55.742Z,40.35
2022-09-12T15:53:24.810Z,40.43
2022-09-12T15:55:53.098Z,40.72
2022-09-12T15:58:21.864Z,40.99
2022-09-12T16:00:50.189Z,41.38
2022-09-12T16:03:25.570Z,41.73
2022-09-12T16:05:57.995Z,41.97
2022-09-12T16:08:27.206Z,42.06
2022-09-12T16:10:57.942Z,42.25
2022-09-12T16:13:27.871Z,42.61
2022-09-12T16:15:58.708Z,42.76
2022-09-12T16:18:27.267Z,42.88
2022-09-12T16:20:58.289Z,42.41
2022-09-12T16:23:27.029Z,42.53
2022-09-12T16:25:58.974Z,42.52
2022-09-12T16:28:28.084Z,42.23
2022-09-12T16:30:57.593Z,41.99
2022-09-12T16:33:27.365Z,42.09
2022-09-12T16:36:03.888Z,42.10
2022-09-12T16:38:34.079Z,42.44
2022-09-12T16:41:02.896Z,42.48
2022-09-12T16:43:31.795Z,42.44
2022-09-12T16:46:04.781Z,42.46
2022-09-12T16:48:34.172Z,42.70
2022-09-12T16:51:07.273Z,42.96
2022-09-12T16:53:38.196Z,43.13
2022-09-12T16:56:07.301Z,43.63
2022-09-12T16:58:41.815Z,44.16
2022-09-12T17:01:12.598Z,44.56
2022-09-12T17:03:41.874Z,44.75
2022-09-12T17:06:13.713Z,45.02
2022-09-12T17:08:45.568Z,45.51
2022-09-12T17:11:16.010Z,46.01
2022-09-12T17:14:03.925Z,46.17
2022-09-12T17:16:34.575Z,46.51
2022-09-12T17:19:02.934Z,46.77
2022-09-12T17:21:34.054Z,46.97
2022-09-12T17:24:03.320Z,47.52
2022-09-12T17:26:32.646Z,47.59
2022-09-12T17:29:01.469Z,48.00
2022-09-12T17:31:31.738Z,48.37
2022-09-12T17:34:01.433Z,48.44
2022-09-12T17:36:32.142Z,48.77
2022-09-12T17:39:03.840Z,49.08
2022-09-12T17:41:34.098Z,49.77
2022-09-12T17:44:03.407Z,49.94
2022-09-12T17:46:35.427Z,50.07
2022-09-12T17:49:05.793Z,50.54
2022-09-12T17:51:35.162Z,51.04
2022-09-12T17:54:08.661Z,51.60
2022-09-12T17:56:38.008Z,51.59
2022-09-12T17:59:08.914Z,51.71
2022-09-12T18:01:54.746Z,52.00
2022-09-12T18:04:24.037Z,51.94
2022-09-12T18:06:52.812Z,52.20
2022-09-12T18:09:25.521Z,52.59
2022-09-12T18:11:54.290Z,52.29
2022-09-12T18:14:23.614Z,52.79
2022-09-12T18:16:52.452Z,52.47
2022-09-12T18:19:23.274Z,52.80
2022-09-12T18:21:51.650Z,53.10
2022-09-12T18:24:20.158Z,53.18
2022-09-12T18:26:50.894Z,53.24
2022-09-12T18:29:20.591Z,52.98
2022-09-12T18:31:48.932Z,53.41
2022-09-12T18:34:18.679Z,53.45
2022-09-12T18:36:49.305Z,53.37
2022-09-12T18:39:18.997Z,53.69
2022-09-12T18:41:47.736Z,53.81
2022-09-12T18:44:17.604Z,53.84
2022-09-12T18:46:46.104Z,54.07
2022-09-12T18:49:14.478Z,54.11
2022-09-12T18:51:43.343Z,54.44
2022-09-12T18:54:15.251Z,54.41
2022-09-12T18:56:45.634Z,54.10
2022-09-12T18:59:14.919Z,54.39
2022-09-12T19:01:45.358Z,54.61
2022-09-12T19:04:16.273Z,55.01
2022-09-12T19:06:46.626Z,55.12
2022-09-12T19:09:18.300Z,55.41
2022-09-12T19:11:50.066Z,55.94
2022-09-12T19:14:22.986Z,55.58
2022-09-12T19:16:52.836Z,55.92
2022-09-12T19:19:22.333Z,56.11
2022-09-12T19:21:50.664Z,56.23
2022-09-12T19:24:19.314Z,56.26
2022-09-12T19:26:48.731Z,56.39
2022-09-12T19:29:18.173Z,56.46
2022-09-12T19:31:46.846Z,56.27
2022-09-12T19:34:17.555Z,56.58
2022-09-12T19:36:47.281Z,56.47
2022-09-12T19:39:17.137Z,56.67
2022-09-12T19:41:46.097Z,56.73
2022-09-12T19:44:14.706Z,56.72
2022-09-12T19:46:43.793Z,56.75
2022-09-12T19:49:12.836Z,56.89
2022-09-12T19:51:44.386Z,57.08
2022-09-12T19:54:12.722Z,57.32
2022-09-12T19:56:40.997Z,57.28
2022-09-12T19:59:10.321Z,57.50
2022-09-12T20:01:38.813Z,57.18
2022-09-12T20:04:08.330Z,57.75
2022-09-12T20:06:36.747Z,57.94
2022-09-12T20:09:06.673Z,57.88
2022-09-12T20:11:35.375Z,57.70
2022-09-12T20:14:04.642Z,57.72
2022-09-12T20:16:33.790Z,58.03
2022-09-12T20:19:03.890Z,58.08
2022-09-12T20:21:34.089Z,58.27
2022-09-12T20:24:04.108Z,58.43
2022-09-12T20:26:34.346Z,58.60
2022-09-12T20:29:03.308Z,58.70
2022-09-12T20:31:32.116Z,58.58
2022-09-12T20:34:00.720Z,58.65
2022-09-12T20:36:29.552Z,58.82
2022-09-12T20:39:01.162Z,58.89
2022-09-12T20:41:32.510Z,58.96
2022-09-12T20:44:02.254Z,58.72
2022-09-12T20:46:31.194Z,58.73
2022-09-12T20:48:59.553Z,59.01
2022-09-12T20:51:29.579Z,59.20
2022-09-12T20:53:59.703Z,59.04
2022-09-12T20:56:29.810Z,59.48
2022-09-12T20:58:59.201Z,59.52
2022-09-12T21:01:30.083Z,59.55
2022-09-12T21:04:00.342Z,59.74
2022-09-12T21:06:29.179Z,59.36
2022-09-12T21:09:00.438Z,59.75
2022-09-12T21:11:29.454Z,59.73
2022-09-12T21:13:58.613Z,59.70
2022-09-12T21:16:28.988Z,59.76
2022-09-12T21:18:59.366Z,59.70
2022-09-12T21:21:28.611Z,59.82
2022-09-12T21:23:59.469Z,59.78
2022-09-12T21:26:28.689Z,59.69
2022-09-12T21:28:57.424Z,59.92
2022-09-12T21:31:28.359Z,59.91
2022-09-12T21:33:56.717Z,59.91
2022-09-12T21:36:25.807Z,59.99
2022-09-12T21:38:54.276Z,60.38
2022-09-12T21:41:22.577Z,60.35
2022-09-12T21:43:51.294Z,60.28
2022-09-12T21:46:20.045Z,60.00
2022-09-12T21:48:49.775Z,60.35
2022-09-12T21:51:18.574Z,60.34
2022-09-12T21:53:47.601Z,60.31
2022-09-12T21:56:15.953Z,60.52
2022-09-12T21:58:45.069Z,60.62
2022-09-12T22:01:13.736Z,60.68
2022-09-12T22:03:45.304Z,60.83
2022-09-12T22:06:17.769Z,60.63
2022-09-12T22:08:49.379Z,60.82
2022-09-12T22:11:19.775Z,60.87
2022-09-12T22:13:48.357Z,60.98
2022-09-12T22:16:17.722Z,60.99
2022-09-12T22:18:47.354Z,61.08
2022-09-12T22:21:19.887Z,61.35
2022-09-12T22:24:06.131Z,61.02
2022-09-12T22:26:43.641Z,60.94
2022-09-12T22:29:13.263Z,60.91
2022-09-12T22:31:42.421Z,61.02
2022-09-12T22:34:10.969Z,61.03
2022-09-12T22:36:41.281Z,61.04
2022-09-12T22:39:09.832Z,61.23
2022-09-12T22:41:39.132Z,61.22
2022-09-12T22:44:08.140Z,61.41
2022-09-12T22:46:36.804Z,61.42
2022-09-12T22:49:05.686Z,61.36
2022-09-12T22:51:34.858Z,61.25
2022-09-12T22:54:05.666Z,61.23
2022-09-12T22:56:34.926Z,61.32
2022-09-12T22:59:03.261Z,61.33
2022-09-12T23:01:33.202Z,61.45
2022-09-12T23:04:01.736Z,61.38
2022-09-12T23:06:31.347Z,61.45
2022-09-12T23:09:00.042Z,61.56
2022-09-12T23:11:29.722Z,61.65
2022-09-12T23:13:58.994Z,61.53
2022-09-12T23:16:28.381Z,61.55
2022-09-12T23:18:57.186Z,61.46
2022-09-12T23:21:25.535Z,61.75
2022-09-12T23:23:56.194Z,61.79
2022-09-12T23:26:28.140Z,61.77
2022-09-12T23:29:00.423Z,61.84
2022-09-12T23:31:31.265Z,61.86
2022-09-12T23:34:01.894Z,61.96
2022-09-12T23:36:30.669Z,62.08
2022-09-12T23:38:59.433Z,62.05
2022-09-12T23:41:28.357Z,62.20
2022-09-12T23:43:58.111Z,62.30
2022-09-12T23:46:26.443Z,62.51
2022-09-12T23:48:55.162Z,62.31
2022-09-12T23:51:23.490Z,62.66
2022-09-12T23:53:52.770Z,62.57
2022-09-12T23:56:22.267Z,62.54
2022-09-12T23:58:51.226Z,62.62
